sensor_id;sensor_type;location;lat;lon;timestamp;pressure;altitude;pressure_sealevel;temperature;humidity
56568;BME280;42456;49.956;20.004;2024-02-26T00:02:22;97409.20;;;6.49;79.29
56568;BME280;42456;49.956;20.004;2024-02-26T00:04:48;97407.76;;;6.47;79.61
56568;BME280;42456;49.956;20.004;2024-02-26T00:07:16;97403.49;;;6.43;79.64
56568;BME280;42456;49.956;20.004;2024-02-26T00:09:43;97401.75;;;6.42;79.92
56568;BME280;42456;49.956;20.004;2024-02-26T00:12:10;97402.80;;;6.41;80.04
56568;BME280;42456;49.956;20.004;2024-02-26T00:14:37;97403.33;;;6.41;79.94
56568;BME280;42456;49.956;20.004;2024-02-26T00:17:04;97402.27;;;6.42;79.50
56568;BME280;42456;49.956;20.004;2024-02-26T00:19:30;97399.92;;;6.42;79.62
56568;BME280;42456;49.956;20.004;2024-02-26T00:21:57;97402.94;;;6.41;79.79
56568;BME280;42456;49.956;20.004;2024-02-26T00:24:25;97402.14;;;6.38;79.95
56568;BME280;42456;49.956;20.004;2024-02-26T00:26:52;97401.84;;;6.36;79.80
56568;BME280;42456;49.956;20.004;2024-02-26T00:29:21;97398.05;;;6.35;80.01
56568;BME280;42456;49.956;20.004;2024-02-26T00:31:49;97396.83;;;6.33;80.12
56568;BME280;42456;49.956;20.004;2024-02-26T00:34:16;97393.77;;;6.31;80.18
56568;BME280;42456;49.956;20.004;2024-02-26T00:36:43;97392.84;;;6.31;80.33
56568;BME280;42456;49.956;20.004;2024-02-26T00:39:11;97394.45;;;6.31;80.75
56568;BME280;42456;49.956;20.004;2024-02-26T00:41:39;97396.48;;;6.30;80.59
56568;BME280;42456;49.956;20.004;2024-02-26T00:44:07;97395.76;;;6.29;80.59
56568;BME280;42456;49.956;20.004;2024-02-26T00:46:34;97392.87;;;6.27;80.76
56568;BME280;42456;49.956;20.004;2024-02-26T00:49:01;97383.75;;;6.27;80.55
56568;BME280;42456;49.956;20.004;2024-02-26T00:51:28;97377.17;;;6.26;80.97
56568;BME280;42456;49.956;20.004;2024-02-26T00:53:55;97375.09;;;6.25;80.93
56568;BME280;42456;49.956;20.004;2024-02-26T00:56:22;97375.02;;;6.25;80.84
56568;BME280;42456;49.956;20.004;2024-02-26T00:58:49;97377.23;;;6.26;80.78
56568;BME280;42456;49.956;20.004;2024-02-26T01:01:17;97377.04;;;6.27;80.81
56568;BME280;42456;49.956;20.004;2024-02-26T01:03:44;97378.73;;;6.27;80.59
56568;BME280;42456;49.956;20.004;2024-02-26T01:06:11;97379.41;;;6.27;80.88
56568;BME280;42456;49.956;20.004;2024-02-26T01:08:38;97379.30;;;6.26;80.80
56568;BME280;42456;49.956;20.004;2024-02-26T01:11:06;97374.00;;;6.25;81.14
56568;BME280;42456;49.956;20.004;2024-02-26T01:13:33;97373.63;;;6.23;81.13
56568;BME280;42456;49.956;20.004;2024-02-26T01:16:00;97372.45;;;6.21;80.86
56568;BME280;42456;49.956;20.004;2024-02-26T01:18:28;97375.13;;;6.19;80.69
56568;BME280;42456;49.956;20.004;2024-02-26T01:20:55;97374.92;;;6.16;80.98
56568;BME280;42456;49.956;20.004;2024-02-26T01:23:22;97373.14;;;6.13;81.05
56568;BME280;42456;49.956;20.004;2024-02-26T01:25:49;97377.55;;;6.12;81.52
56568;BME280;42456;49.956;20.004;2024-02-26T01:28:16;97375.39;;;6.10;81.33
56568;BME280;42456;49.956;20.004;2024-02-26T01:30:43;97377.87;;;6.09;81.28
56568;BME280;42456;49.956;20.004;2024-02-26T01:33:10;97378.33;;;6.07;81.07
56568;BME280;42456;49.956;20.004;2024-02-26T01:35:37;97381.98;;;6.05;81.03
56568;BME280;42456;49.956;20.004;2024-02-26T01:38:04;97382.67;;;6.03;80.95
56568;BME280;42456;49.956;20.004;2024-02-26T01:40:31;97383.02;;;6.01;81.11
56568;BME280;42456;49.956;20.004;2024-02-26T01:42:59;97379.30;;;5.98;81.06
56568;BME280;42456;49.956;20.004;2024-02-26T01:45:27;97377.63;;;5.92;80.95
56568;BME280;42456;49.956;20.004;2024-02-26T01:47:55;97379.32;;;5.87;80.87
56568;BME280;42456;49.956;20.004;2024-02-26T01:50:24;97382.20;;;5.81;80.76
56568;BME280;42456;49.956;20.004;2024-02-26T01:52:52;97377.63;;;5.75;80.90
56568;BME280;42456;49.956;20.004;2024-02-26T01:55:22;97380.73;;;5.72;80.91
56568;BME280;42456;49.956;20.004;2024-02-26T01:57:50;97380.03;;;5.67;80.85
56568;BME280;42456;49.956;20.004;2024-02-26T02:00:20;97373.90;;;5.63;80.91
56568;BME280;42456;49.956;20.004;2024-02-26T02:02:48;97378.73;;;5.58;80.89
56568;BME280;42456;49.956;20.004;2024-02-26T02:05:17;97377.08;;;5.54;80.80
56568;BME280;42456;49.956;20.004;2024-02-26T02:07:44;97375.75;;;5.49;80.85
56568;BME280;42456;49.956;20.004;2024-02-26T02:10:13;97373.75;;;5.45;80.86
56568;BME280;42456;49.956;20.004;2024-02-26T02:12:40;97377.17;;;5.41;80.81
56568;BME280;42456;49.956;20.004;2024-02-26T02:15:07;97378.75;;;5.37;81.12
56568;BME280;42456;49.956;20.004;2024-02-26T02:17:34;97381.34;;;5.34;81.08
56568;BME280;42456;49.956;20.004;2024-02-26T02:20:02;97379.04;;;5.30;81.05
56568;BME280;42456;49.956;20.004;2024-02-26T02:22:30;97380.80;;;5.25;81.21
56568;BME280;42456;49.956;20.004;2024-02-26T02:24:59;97378.71;;;5.21;81.00
56568;BME280;42456;49.956;20.004;2024-02-26T02:27:28;97378.16;;;5.15;80.82
56568;BME280;42456;49.956;20.004;2024-02-26T02:29:55;97378.42;;;5.08;80.80
56568;BME280;42456;49.956;20.004;2024-02-26T02:32:22;97381.20;;;5.05;81.11
56568;BME280;42456;49.956;20.004;2024-02-26T02:34:51;97381.46;;;5.00;81.09
56568;BME280;42456;49.956;20.004;2024-02-26T02:37:18;97385.48;;;4.98;81.35
56568;BME280;42456;49.956;20.004;2024-02-26T02:39:45;97393.59;;;4.94;81.11
56568;BME280;42456;49.956;20.004;2024-02-26T02:42:12;97392.38;;;4.90;81.26
56568;BME280;42456;49.956;20.004;2024-02-26T02:44:39;97397.70;;;4.87;81.26
56568;BME280;42456;49.956;20.004;2024-02-26T02:47:06;97396.88;;;4.84;81.62
56568;BME280;42456;49.956;20.004;2024-02-26T02:49:33;97393.11;;;4.80;81.69
56568;BME280;42456;49.956;20.004;2024-02-26T02:52:00;97392.58;;;4.77;81.52
56568;BME280;42456;49.956;20.004;2024-02-26T02:54:27;97395.77;;;4.75;81.65
56568;BME280;42456;49.956;20.004;2024-02-26T02:56:54;97398.84;;;4.72;81.61
56568;BME280;42456;49.956;20.004;2024-02-26T02:59:21;97396.42;;;4.67;81.34
56568;BME280;42456;49.956;20.004;2024-02-26T03:01:48;97388.83;;;4.61;81.29
56568;BME280;42456;49.956;20.004;2024-02-26T03:04:15;97391.55;;;4.57;81.54
56568;BME280;42456;49.956;20.004;2024-02-26T03:06:42;97392.23;;;4.53;81.64
56568;BME280;42456;49.956;20.004;2024-02-26T03:09:09;97394.38;;;4.50;81.46
56568;BME280;42456;49.956;20.004;2024-02-26T03:11:36;97394.75;;;4.45;81.70
56568;BME280;42456;49.956;20.004;2024-02-26T03:14:02;97396.36;;;4.39;81.31
56568;BME280;42456;49.956;20.004;2024-02-26T03:16:29;97395.35;;;4.33;81.18
56568;BME280;42456;49.956;20.004;2024-02-26T03:18:56;97394.02;;;4.26;81.11
56568;BME280;42456;49.956;20.004;2024-02-26T03:21:25;97389.57;;;4.19;81.03
56568;BME280;42456;49.956;20.004;2024-02-26T03:23:52;97388.23;;;4.11;80.58
56568;BME280;42456;49.956;20.004;2024-02-26T03:26:19;97382.91;;;4.04;80.87
56568;BME280;42456;49.956;20.004;2024-02-26T03:28:47;97379.18;;;3.99;81.16
56568;BME280;42456;49.956;20.004;2024-02-26T03:31:14;97375.20;;;3.92;81.30
56568;BME280;42456;49.956;20.004;2024-02-26T03:33:42;97372.52;;;3.87;81.33
56568;BME280;42456;49.956;20.004;2024-02-26T03:36:09;97371.50;;;3.83;81.43
56568;BME280;42456;49.956;20.004;2024-02-26T03:38:37;97366.95;;;3.78;81.56
56568;BME280;42456;49.956;20.004;2024-02-26T03:41:04;97367.60;;;3.74;81.88
56568;BME280;42456;49.956;20.004;2024-02-26T03:43:31;97369.23;;;3.71;81.71
56568;BME280;42456;49.956;20.004;2024-02-26T03:45:58;97368.92;;;3.66;81.58
56568;BME280;42456;49.956;20.004;2024-02-26T03:48:25;97369.40;;;3.62;81.80
56568;BME280;42456;49.956;20.004;2024-02-26T03:50:52;97366.79;;;3.56;82.09
56568;BME280;42456;49.956;20.004;2024-02-26T03:53:19;97364.66;;;3.52;81.62
56568;BME280;42456;49.956;20.004;2024-02-26T03:55:46;97362.11;;;3.46;81.45
56568;BME280;42456;49.956;20.004;2024-02-26T03:58:13;97360.58;;;3.41;81.54
56568;BME280;42456;49.956;20.004;2024-02-26T04:00:40;97356.04;;;3.36;81.94
56568;BME280;42456;49.956;20.004;2024-02-26T04:03:07;97360.91;;;3.30;81.34
56568;BME280;42456;49.956;20.004;2024-02-26T04:05:34;97368.52;;;3.23;81.84
56568;BME280;42456;49.956;20.004;2024-02-26T04:08:01;97363.48;;;3.17;81.29
56568;BME280;42456;49.956;20.004;2024-02-26T04:10:31;97360.17;;;3.13;81.97
56568;BME280;42456;49.956;20.004;2024-02-26T04:13:08;97356.16;;;3.10;82.29
56568;BME280;42456;49.956;20.004;2024-02-26T04:16:26;97349.27;;;3.07;82.49
56568;BME280;42456;49.956;20.004;2024-02-26T04:19:29;97340.81;;;3.05;82.68
56568;BME280;42456;49.956;20.004;2024-02-26T04:22:28;97340.33;;;3.02;82.66
56568;BME280;42456;49.956;20.004;2024-02-26T04:25:08;97338.73;;;2.94;82.56
56568;BME280;42456;49.956;20.004;2024-02-26T04:27:40;97337.45;;;2.88;82.14
56568;BME280;42456;49.956;20.004;2024-02-26T04:30:11;97340.42;;;2.82;82.14
56568;BME280;42456;49.956;20.004;2024-02-26T04:32:44;97335.89;;;2.73;82.47
56568;BME280;42456;49.956;20.004;2024-02-26T04:35:14;97335.27;;;2.70;82.09
56568;BME280;42456;49.956;20.004;2024-02-26T04:37:41;97333.52;;;2.69;82.55
56568;BME280;42456;49.956;20.004;2024-02-26T04:40:09;97333.94;;;2.68;82.45
56568;BME280;42456;49.956;20.004;2024-02-26T04:42:36;97328.58;;;2.64;82.85
56568;BME280;42456;49.956;20.004;2024-02-26T04:45:04;97330.40;;;2.63;82.84
56568;BME280;42456;49.956;20.004;2024-02-26T04:47:31;97331.74;;;2.60;82.69
56568;BME280;42456;49.956;20.004;2024-02-26T04:49:58;97334.17;;;2.54;82.57
56568;BME280;42456;49.956;20.004;2024-02-26T04:52:25;97331.04;;;2.48;82.62
56568;BME280;42456;49.956;20.004;2024-02-26T04:54:52;97328.48;;;2.42;82.28
56568;BME280;42456;49.956;20.004;2024-02-26T04:57:19;97331.61;;;2.38;82.63
56568;BME280;42456;49.956;20.004;2024-02-26T04:59:46;97329.22;;;2.34;82.87
56568;BME280;42456;49.956;20.004;2024-02-26T05:02:13;97328.09;;;2.29;82.60
56568;BME280;42456;49.956;20.004;2024-02-26T05:04:41;97330.31;;;2.24;82.72
56568;BME280;42456;49.956;20.004;2024-02-26T05:07:07;97330.77;;;2.21;83.14
56568;BME280;42456;49.956;20.004;2024-02-26T05:09:35;97330.25;;;2.17;83.02
56568;BME280;42456;49.956;20.004;2024-02-26T05:12:02;97333.59;;;2.15;83.21
56568;BME280;42456;49.956;20.004;2024-02-26T05:14:30;97337.73;;;2.12;83.48
56568;BME280;42456;49.956;20.004;2024-02-26T05:16:57;97345.11;;;2.09;83.50
56568;BME280;42456;49.956;20.004;2024-02-26T05:19:24;97342.95;;;2.06;83.63
56568;BME280;42456;49.956;20.004;2024-02-26T05:21:52;97339.36;;;2.03;83.87
56568;BME280;42456;49.956;20.004;2024-02-26T05:24:19;97334.48;;;2.02;83.65
56568;BME280;42456;49.956;20.004;2024-02-26T05:26:50;97337.09;;;2.00;83.92
56568;BME280;42456;49.956;20.004;2024-02-26T05:29:17;97342.02;;;1.97;83.66
56568;BME280;42456;49.956;20.004;2024-02-26T05:31:44;97344.71;;;1.95;83.74
56568;BME280;42456;49.956;20.004;2024-02-26T05:34:12;97347.74;;;1.88;83.50
56568;BME280;42456;49.956;20.004;2024-02-26T05:36:40;97350.80;;;1.87;83.59
56568;BME280;42456;49.956;20.004;2024-02-26T05:39:07;97355.51;;;1.85;83.34
56568;BME280;42456;49.956;20.004;2024-02-26T05:41:39;97357.72;;;1.84;83.48
56568;BME280;42456;49.956;20.004;2024-02-26T05:44:10;97359.14;;;1.83;84.16
56568;BME280;42456;49.956;20.004;2024-02-26T05:46:38;97359.27;;;1.84;84.34
56568;BME280;42456;49.956;20.004;2024-02-26T05:49:05;97363.43;;;1.87;84.97
56568;BME280;42456;49.956;20.004;2024-02-26T05:51:34;97367.88;;;1.89;84.88
56568;BME280;42456;49.956;20.004;2024-02-26T05:54:02;97371.79;;;1.90;84.77
56568;BME280;42456;49.956;20.004;2024-02-26T05:56:29;97368.13;;;1.90;84.51
56568;BME280;42456;49.956;20.004;2024-02-26T05:58:59;97369.04;;;1.90;84.48
56568;BME280;42456;49.956;20.004;2024-02-26T06:01:46;97370.30;;;1.90;85.05
56568;BME280;42456;49.956;20.004;2024-02-26T06:05:13;97373.19;;;1.95;85.11
56568;BME280;42456;49.956;20.004;2024-02-26T06:08:02;97369.04;;;1.95;84.97
56568;BME280;42456;49.956;20.004;2024-02-26T06:10:33;97367.66;;;1.98;84.94
56568;BME280;42456;49.956;20.004;2024-02-26T06:13:00;97365.23;;;2.03;84.95
56568;BME280;42456;49.956;20.004;2024-02-26T06:15:35;97356.11;;;2.08;85.29
56568;BME280;42456;49.956;20.004;2024-02-26T06:18:03;97351.77;;;2.12;85.59
56568;BME280;42456;49.956;20.004;2024-02-26T06:20:30;97350.61;;;2.18;86.07
56568;BME280;42456;49.956;20.004;2024-02-26T06:23:00;97350.77;;;2.32;86.23
56568;BME280;42456;49.956;20.004;2024-02-26T06:25:28;97355.39;;;2.50;85.81
56568;BME280;42456;49.956;20.004;2024-02-26T06:27:56;97355.29;;;2.66;85.68
56568;BME280;42456;49.956;20.004;2024-02-26T06:30:23;97360.71;;;2.88;86.31
56568;BME280;42456;49.956;20.004;2024-02-26T06:32:51;97366.45;;;3.08;86.54
56568;BME280;42456;49.956;20.004;2024-02-26T06:35:18;97372.49;;;3.18;86.04
56568;BME280;42456;49.956;20.004;2024-02-26T06:37:46;97373.13;;;3.24;86.07
56568;BME280;42456;49.956;20.004;2024-02-26T06:40:13;97379.41;;;3.33;85.96
56568;BME280;42456;49.956;20.004;2024-02-26T06:42:52;97380.30;;;3.41;86.65
56568;BME280;42456;49.956;20.004;2024-02-26T06:45:19;97380.75;;;3.49;86.26
56568;BME280;42456;49.956;20.004;2024-02-26T06:48:08;97384.10;;;3.61;86.57
56568;BME280;42456;49.956;20.004;2024-02-26T06:50:36;97384.33;;;3.73;86.84
56568;BME280;42456;49.956;20.004;2024-02-26T06:53:04;97385.11;;;3.86;86.41
56568;BME280;42456;49.956;20.004;2024-02-26T06:55:34;97385.58;;;3.96;86.64
56568;BME280;42456;49.956;20.004;2024-02-26T06:58:02;97389.02;;;4.05;86.19
56568;BME280;42456;49.956;20.004;2024-02-26T07:00:29;97389.41;;;4.06;86.12
56568;BME280;42456;49.956;20.004;2024-02-26T07:02:56;97392.52;;;4.10;86.18
56568;BME280;42456;49.956;20.004;2024-02-26T07:05:26;97384.05;;;4.15;86.30
56568;BME280;42456;49.956;20.004;2024-02-26T07:07:54;97391.36;;;4.21;86.38
56568;BME280;42456;49.956;20.004;2024-02-26T07:10:22;97394.00;;;4.26;86.54
56568;BME280;42456;49.956;20.004;2024-02-26T07:12:50;97387.83;;;4.30;86.28
56568;BME280;42456;49.956;20.004;2024-02-26T07:15:17;97394.53;;;4.32;86.78
56568;BME280;42456;49.956;20.004;2024-02-26T07:17:45;97395.14;;;4.38;87.05
56568;BME280;42456;49.956;20.004;2024-02-26T07:20:16;97390.98;;;4.42;86.86
56568;BME280;42456;49.956;20.004;2024-02-26T07:22:45;97389.11;;;4.50;87.16
56568;BME280;42456;49.956;20.004;2024-02-26T07:25:13;97396.15;;;4.58;87.32
56568;BME280;42456;49.956;20.004;2024-02-26T07:27:41;97393.28;;;4.67;87.69
56568;BME280;42456;49.956;20.004;2024-02-26T07:30:13;97389.83;;;4.78;87.47
56568;BME280;42456;49.956;20.004;2024-02-26T07:32:43;97391.84;;;4.90;87.64
56568;BME280;42456;49.956;20.004;2024-02-26T07:39:04;97394.67;;;5.27;87.99
56568;BME280;42456;49.956;20.004;2024-02-26T07:41:37;97392.11;;;5.40;88.02
56568;BME280;42456;49.956;20.004;2024-02-26T07:44:15;97393.48;;;5.54;88.02
56568;BME280;42456;49.956;20.004;2024-02-26T07:46:49;97388.59;;;5.72;88.09
56568;BME280;42456;49.956;20.004;2024-02-26T07:49:20;97390.64;;;5.88;88.18
56568;BME280;42456;49.956;20.004;2024-02-26T07:51:51;97382.67;;;6.03;88.52
56568;BME280;42456;49.956;20.004;2024-02-26T07:54:32;97386.83;;;6.27;88.33
56568;BME280;42456;49.956;20.004;2024-02-26T07:57:21;97390.71;;;6.48;88.63
56568;BME280;42456;49.956;20.004;2024-02-26T07:59:51;97382.56;;;6.64;88.65
56568;BME280;42456;49.956;20.004;2024-02-26T08:02:18;97384.50;;;6.85;88.34
56568;BME280;42456;49.956;20.004;2024-02-26T08:05:06;97383.66;;;7.04;88.81
56568;BME280;42456;49.956;20.004;2024-02-26T08:08:14;97384.85;;;7.30;88.51
56568;BME280;42456;49.956;20.004;2024-02-26T08:10:42;97381.60;;;7.44;88.39
56568;BME280;42456;49.956;20.004;2024-02-26T08:13:09;97381.67;;;7.66;87.49
56568;BME280;42456;49.956;20.004;2024-02-26T08:15:40;97375.61;;;7.77;87.90
56568;BME280;42456;49.956;20.004;2024-02-26T08:18:09;97376.05;;;7.93;87.79
56568;BME280;42456;49.956;20.004;2024-02-26T08:20:39;97374.30;;;8.16;87.77
56568;BME280;42456;49.956;20.004;2024-02-26T08:23:21;97371.73;;;8.46;87.68
56568;BME280;42456;49.956;20.004;2024-02-26T08:25:59;97372.70;;;8.74;87.07
56568;BME280;42456;49.956;20.004;2024-02-26T08:32:20;97385.98;;;9.30;85.57
56568;BME280;42456;49.956;20.004;2024-02-26T08:34:53;97388.58;;;9.52;84.34
56568;BME280;42456;49.956;20.004;2024-02-26T08:37:26;97390.65;;;9.69;83.08
56568;BME280;42456;49.956;20.004;2024-02-26T08:39:53;97386.04;;;9.83;82.19
56568;BME280;42456;49.956;20.004;2024-02-26T08:42:21;97393.48;;;9.95;81.50
56568;BME280;42456;49.956;20.004;2024-02-26T08:45:07;97387.88;;;10.04;80.82
56568;BME280;42456;49.956;20.004;2024-02-26T08:48:09;97385.21;;;10.26;80.13
56568;BME280;42456;49.956;20.004;2024-02-26T08:50:50;97374.67;;;10.48;79.85
56568;BME280;42456;49.956;20.004;2024-02-26T08:53:31;97373.86;;;10.66;78.86
56568;BME280;42456;49.956;20.004;2024-02-26T08:56:14;97371.74;;;10.81;78.31
56568;BME280;42456;49.956;20.004;2024-02-26T09:10:45;97374.45;;;11.10;75.41
56568;BME280;42456;49.956;20.004;2024-02-26T09:14:00;97372.66;;;11.10;75.22
56568;BME280;42456;49.956;20.004;2024-02-26T09:16:46;97366.98;;;11.14;75.13
56568;BME280;42456;49.956;20.004;2024-02-26T09:19:17;97366.85;;;11.23;74.95
56568;BME280;42456;49.956;20.004;2024-02-26T09:21:56;97366.55;;;11.34;74.37
56568;BME280;42456;49.956;20.004;2024-02-26T09:25:04;97373.73;;;11.52;73.97
56568;BME280;42456;49.956;20.004;2024-02-26T09:27:45;97373.20;;;11.56;72.78
56568;BME280;42456;49.956;20.004;2024-02-26T09:30:18;97378.98;;;11.60;72.37
56568;BME280;42456;49.956;20.004;2024-02-26T09:32:52;97373.13;;;11.64;71.96
56568;BME280;42456;49.956;20.004;2024-02-26T09:35:36;97378.34;;;11.74;72.27
56568;BME280;42456;49.956;20.004;2024-02-26T09:38:04;97376.70;;;11.81;72.11
56568;BME280;42456;49.956;20.004;2024-02-26T09:40:44;97379.35;;;11.92;72.18
56568;BME280;42456;49.956;20.004;2024-02-26T09:43:19;97383.23;;;12.02;71.79
56568;BME280;42456;49.956;20.004;2024-02-26T09:45:53;97380.02;;;12.08;71.44
56568;BME280;42456;49.956;20.004;2024-02-26T09:48:26;97374.92;;;12.16;71.34
56568;BME280;42456;49.956;20.004;2024-02-26T09:50:54;97366.36;;;12.30;71.79
56568;BME280;42456;49.956;20.004;2024-02-26T09:53:39;97370.32;;;12.51;71.42
56568;BME280;42456;49.956;20.004;2024-02-26T09:56:23;97370.33;;;12.67;70.75
56568;BME280;42456;49.956;20.004;2024-02-26T09:58:58;97367.36;;;12.80;70.68
56568;BME280;42456;49.956;20.004;2024-02-26T10:01:29;97370.44;;;12.91;70.47
56568;BME280;42456;49.956;20.004;2024-02-26T10:04:03;97376.02;;;13.03;69.97
56568;BME280;42456;49.956;20.004;2024-02-26T10:06:34;97373.89;;;13.10;69.39
56568;BME280;42456;49.956;20.004;2024-02-26T10:09:09;97369.45;;;13.19;69.40
56568;BME280;42456;49.956;20.004;2024-02-26T10:11:38;97368.63;;;13.28;69.19
56568;BME280;42456;49.956;20.004;2024-02-26T10:14:10;97367.95;;;13.36;69.01
56568;BME280;42456;49.956;20.004;2024-02-26T10:16:38;97365.36;;;13.39;68.25
56568;BME280;42456;49.956;20.004;2024-02-26T10:19:06;97365.58;;;13.38;67.34
56568;BME280;42456;49.956;20.004;2024-02-26T10:21:37;97362.64;;;13.37;67.31
56568;BME280;42456;49.956;20.004;2024-02-26T10:24:13;97365.20;;;13.38;67.17
56568;BME280;42456;49.956;20.004;2024-02-26T10:26:48;97360.19;;;13.38;67.33
56568;BME280;42456;49.956;20.004;2024-02-26T10:29:16;97354.47;;;13.44;67.20
56568;BME280;42456;49.956;20.004;2024-02-26T10:31:47;97356.42;;;13.53;67.26
56568;BME280;42456;49.956;20.004;2024-02-26T10:34:15;97355.12;;;13.61;67.24
56568;BME280;42456;49.956;20.004;2024-02-26T10:36:43;97358.05;;;13.69;65.99
56568;BME280;42456;49.956;20.004;2024-02-26T10:39:19;97353.06;;;13.72;65.69
56568;BME280;42456;49.956;20.004;2024-02-26T10:41:48;97358.89;;;13.82;65.79
56568;BME280;42456;49.956;20.004;2024-02-26T10:44:19;97358.77;;;13.87;65.68
56568;BME280;42456;49.956;20.004;2024-02-26T10:46:50;97353.99;;;13.95;65.59
56568;BME280;42456;49.956;20.004;2024-02-26T10:49:46;97350.60;;;14.03;65.20
56568;BME280;42456;49.956;20.004;2024-02-26T10:52:19;97354.53;;;14.10;65.57
56568;BME280;42456;49.956;20.004;2024-02-26T10:54:47;97355.15;;;14.19;65.26
56568;BME280;42456;49.956;20.004;2024-02-26T10:57:31;97351.92;;;14.29;65.29
56568;BME280;42456;49.956;20.004;2024-02-26T11:00:29;97346.90;;;14.38;64.68
56568;BME280;42456;49.956;20.004;2024-02-26T11:03:15;97341.91;;;14.44;65.05
56568;BME280;42456;49.956;20.004;2024-02-26T11:06:05;97345.71;;;14.56;64.73
56568;BME280;42456;49.956;20.004;2024-02-26T11:08:37;97347.58;;;14.58;64.02
56568;BME280;42456;49.956;20.004;2024-02-26T11:11:11;97344.29;;;14.61;64.13
56568;BME280;42456;49.956;20.004;2024-02-26T11:13:53;97350.84;;;14.69;63.89
56568;BME280;42456;49.956;20.004;2024-02-26T11:16:40;97344.35;;;14.71;63.25
56568;BME280;42456;49.956;20.004;2024-02-26T11:19:34;97339.35;;;14.75;63.38
56568;BME280;42456;49.956;20.004;2024-02-26T11:22:16;97336.85;;;14.84;62.92
56568;BME280;42456;49.956;20.004;2024-02-26T11:25:21;97337.02;;;14.89;62.72
56568;BME280;42456;49.956;20.004;2024-02-26T11:28:26;97327.11;;;15.00;63.24
56568;BME280;42456;49.956;20.004;2024-02-26T11:30:58;97335.80;;;15.06;63.05
56568;BME280;42456;49.956;20.004;2024-02-26T11:33:39;97331.28;;;15.15;62.64
56568;BME280;42456;49.956;20.004;2024-02-26T11:36:10;97328.44;;;15.24;62.46
56568;BME280;42456;49.956;20.004;2024-02-26T11:38:39;97323.85;;;15.34;62.14
56568;BME280;42456;49.956;20.004;2024-02-26T11:41:07;97320.33;;;15.40;61.70
56568;BME280;42456;49.956;20.004;2024-02-26T11:43:53;97316.95;;;15.48;61.80
56568;BME280;42456;49.956;20.004;2024-02-26T11:46:32;97311.70;;;15.58;61.83
56568;BME280;42456;49.956;20.004;2024-02-26T11:49:01;97319.14;;;15.63;61.76
56568;BME280;42456;49.956;20.004;2024-02-26T11:51:36;97322.48;;;15.66;61.14
56568;BME280;42456;49.956;20.004;2024-02-26T11:54:04;97321.95;;;15.68;61.11
56568;BME280;42456;49.956;20.004;2024-02-26T11:56:34;97330.25;;;15.77;60.79
56568;BME280;42456;49.956;20.004;2024-02-26T11:59:09;97329.02;;;15.83;60.79
56568;BME280;42456;49.956;20.004;2024-02-26T12:01:47;97329.73;;;15.92;60.64
56568;BME280;42456;49.956;20.004;2024-02-26T12:04:19;97321.83;;;15.98;60.25
56568;BME280;42456;49.956;20.004;2024-02-26T12:07:24;97326.73;;;16.05;60.63
56568;BME280;42456;49.956;20.004;2024-02-26T12:11:18;97319.98;;;16.21;60.05
56568;BME280;42456;49.956;20.004;2024-02-26T12:14:40;97317.19;;;16.34;60.71
56568;BME280;42456;49.956;20.004;2024-02-26T12:18:35;97312.39;;;16.52;60.21
56568;BME280;42456;49.956;20.004;2024-02-26T12:21:54;97302.52;;;16.63;59.80
56568;BME280;42456;49.956;20.004;2024-02-26T12:25:03;97307.55;;;16.74;59.48
56568;BME280;42456;49.956;20.004;2024-02-26T12:29:06;97306.17;;;16.94;58.49
56568;BME280;42456;49.956;20.004;2024-02-26T12:33:14;97314.08;;;16.97;57.79
56568;BME280;42456;49.956;20.004;2024-02-26T12:36:48;97310.48;;;17.06;57.39
56568;BME280;42456;49.956;20.004;2024-02-26T12:40:41;97298.33;;;17.18;57.24
56568;BME280;42456;49.956;20.004;2024-02-26T12:51:46;97312.59;;;17.40;55.83
56568;BME280;42456;49.956;20.004;2024-02-26T12:54:30;97314.63;;;17.35;55.50
56568;BME280;42456;49.956;20.004;2024-02-26T12:57:05;97316.77;;;17.26;55.05
56568;BME280;42456;49.956;20.004;2024-02-26T12:59:42;97321.70;;;17.17;55.15
56568;BME280;42456;49.956;20.004;2024-02-26T13:04:54;97316.28;;;17.08;55.19
56568;BME280;42456;49.956;20.004;2024-02-26T13:08:35;97313.11;;;17.09;55.65
56568;BME280;42456;49.956;20.004;2024-02-26T13:15:46;97319.16;;;17.09;55.68
56568;BME280;42456;49.956;20.004;2024-02-26T13:19:35;97320.34;;;17.03;55.11
56568;BME280;42456;49.956;20.004;2024-02-26T13:27:28;97328.95;;;16.83;55.16
56568;BME280;42456;49.956;20.004;2024-02-26T13:31:39;97325.33;;;16.63;55.63
56568;BME280;42456;49.956;20.004;2024-02-26T13:38:51;97328.13;;;16.50;56.46
56568;BME280;42456;49.956;20.004;2024-02-26T13:41:18;97326.05;;;16.48;56.31
56568;BME280;42456;49.956;20.004;2024-02-26T13:43:44;97332.17;;;16.47;56.68
56568;BME280;42456;49.956;20.004;2024-02-26T13:46:10;97330.77;;;16.44;56.85
56568;BME280;42456;49.956;20.004;2024-02-26T13:48:38;97327.76;;;16.44;56.78
56568;BME280;42456;49.956;20.004;2024-02-26T13:51:04;97327.11;;;16.43;57.24
56568;BME280;42456;49.956;20.004;2024-02-26T13:53:30;97329.05;;;16.42;56.99
56568;BME280;42456;49.956;20.004;2024-02-26T13:55:55;97325.56;;;16.42;56.97
56568;BME280;42456;49.956;20.004;2024-02-26T13:58:24;97329.67;;;16.41;56.86
56568;BME280;42456;49.956;20.004;2024-02-26T14:00:55;97328.75;;;16.40;56.22
56568;BME280;42456;49.956;20.004;2024-02-26T14:03:23;97328.59;;;16.39;56.76
56568;BME280;42456;49.956;20.004;2024-02-26T14:05:50;97331.14;;;16.42;56.43
56568;BME280;42456;49.956;20.004;2024-02-26T14:08:18;97328.13;;;16.42;55.94
56568;BME280;42456;49.956;20.004;2024-02-26T14:10:45;97335.80;;;16.39;55.68
56568;BME280;42456;49.956;20.004;2024-02-26T14:13:13;97334.39;;;16.35;55.99
56568;BME280;42456;49.956;20.004;2024-02-26T14:15:40;97335.25;;;16.33;55.89
56568;BME280;42456;49.956;20.004;2024-02-26T14:18:08;97337.73;;;16.33;55.71
56568;BME280;42456;49.956;20.004;2024-02-26T14:20:35;97333.09;;;16.31;55.79
56568;BME280;42456;49.956;20.004;2024-02-26T14:23:03;97333.01;;;16.30;55.68